sensor_id;sensor_type;location;lat;lon;timestamp;pressure;altitude;pressure_sealevel;temperature;humidity
31911;BME280;18457;52.432;16.914;2023-04-25T00:02:17;99407.23;;;10.57;76.03
31911;BME280;18457;52.432;16.914;2023-04-25T00:04:50;99404.70;;;10.57;75.59
31911;BME280;18457;52.432;16.914;2023-04-25T00:07:23;99411.23;;;10.57;74.53
31911;BME280;18457;52.432;16.914;2023-04-25T00:09:56;99410.38;;;10.37;73.89
31911;BME280;18457;52.432;16.914;2023-04-25T00:12:28;99409.32;;;10.32;73.65
31911;BME280;18457;52.432;16.914;2023-04-25T00:15:00;99408.09;;;10.31;73.47
31911;BME280;18457;52.432;16.914;2023-04-25T00:17:33;99405.23;;;10.26;73.56
31911;BME280;18457;52.432;16.914;2023-04-25T00:20:11;99407.98;;;10.25;73.54
31911;BME280;18457;52.432;16.914;2023-04-25T00:22:43;99404.44;;;10.27;73.31
31911;BME280;18457;52.432;16.914;2023-04-25T00:25:16;99409.98;;;10.19;73.49
31911;BME280;18457;52.432;16.914;2023-04-25T00:27:48;99411.41;;;10.20;73.28
31911;BME280;18457;52.432;16.914;2023-04-25T00:30:19;99417.63;;;10.23;73.14
31911;BME280;18457;52.432;16.914;2023-04-25T00:32:51;99415.70;;;10.12;73.33
31911;BME280;18457;52.432;16.914;2023-04-25T00:35:23;99416.23;;;10.11;73.61
31911;BME280;18457;52.432;16.914;2023-04-25T00:37:56;99421.22;;;9.99;73.81
31911;BME280;18457;52.432;16.914;2023-04-25T00:40:28;99418.94;;;9.97;74.11
31911;BME280;18457;52.432;16.914;2023-04-25T00:43:00;99419.80;;;9.98;74.13
31911;BME280;18457;52.432;16.914;2023-04-25T00:45:32;99418.85;;;9.95;74.29
31911;BME280;18457;52.432;16.914;2023-04-25T00:48:09;99421.30;;;9.92;74.52
31911;BME280;18457;52.432;16.914;2023-04-25T00:50:42;99423.77;;;9.88;74.74
31911;BME280;18457;52.432;16.914;2023-04-25T00:53:13;99420.30;;;9.90;74.64
31911;BME280;18457;52.432;16.914;2023-04-25T00:55:45;99415.65;;;9.83;75.11
31911;BME280;18457;52.432;16.914;2023-04-25T00:58:17;99417.61;;;9.89;75.17
31911;BME280;18457;52.432;16.914;2023-04-25T01:00:51;99425.79;;;9.87;75.17
31911;BME280;18457;52.432;16.914;2023-04-25T01:03:23;99422.55;;;9.87;75.43
31911;BME280;18457;52.432;16.914;2023-04-25T01:05:57;99424.73;;;9.87;75.40
31911;BME280;18457;52.432;16.914;2023-04-25T01:08:29;99424.70;;;9.78;75.77
31911;BME280;18457;52.432;16.914;2023-04-25T01:11:01;99426.84;;;9.78;75.90
31911;BME280;18457;52.432;16.914;2023-04-25T01:13:35;99424.23;;;9.76;76.13
31911;BME280;18457;52.432;16.914;2023-04-25T01:16:08;99420.45;;;9.76;76.05
31911;BME280;18457;52.432;16.914;2023-04-25T01:18:41;99422.65;;;9.75;76.08
31911;BME280;18457;52.432;16.914;2023-04-25T01:21:14;99424.23;;;9.76;76.18
31911;BME280;18457;52.432;16.914;2023-04-25T01:23:49;99424.45;;;9.70;76.40
31911;BME280;18457;52.432;16.914;2023-04-25T01:26:23;99425.02;;;9.64;76.72
31911;BME280;18457;52.432;16.914;2023-04-25T01:28:57;99422.18;;;9.68;76.97
31911;BME280;18457;52.432;16.914;2023-04-25T01:31:31;99423.71;;;9.65;77.06
31911;BME280;18457;52.432;16.914;2023-04-25T01:34:03;99428.98;;;9.64;77.34
31911;BME280;18457;52.432;16.914;2023-04-25T01:36:37;99431.32;;;9.69;77.43
31911;BME280;18457;52.432;16.914;2023-04-25T01:39:09;99430.90;;;9.56;78.01
31911;BME280;18457;52.432;16.914;2023-04-25T01:41:42;99431.35;;;9.53;78.36
31911;BME280;18457;52.432;16.914;2023-04-25T01:44:14;99432.64;;;9.52;78.58
31911;BME280;18457;52.432;16.914;2023-04-25T01:46:45;99430.70;;;9.46;79.02
31911;BME280;18457;52.432;16.914;2023-04-25T01:49:17;99433.52;;;9.43;79.59
31911;BME280;18457;52.432;16.914;2023-04-25T01:51:49;99432.25;;;9.38;80.16
31911;BME280;18457;52.432;16.914;2023-04-25T01:54:22;99430.00;;;9.41;80.58
31911;BME280;18457;52.432;16.914;2023-04-25T01:56:55;99430.76;;;9.60;79.93
31911;BME280;18457;52.432;16.914;2023-04-25T01:59:28;99430.67;;;9.73;79.47
31911;BME280;18457;52.432;16.914;2023-04-25T02:02:10;99433.04;;;9.82;79.33
31911;BME280;18457;52.432;16.914;2023-04-25T02:04:42;99424.15;;;9.83;79.24
31911;BME280;18457;52.432;16.914;2023-04-25T02:07:16;99434.52;;;9.90;79.22
31911;BME280;18457;52.432;16.914;2023-04-25T02:09:52;99431.89;;;9.78;79.73
31911;BME280;18457;52.432;16.914;2023-04-25T02:12:26;99435.52;;;9.68;80.49
31911;BME280;18457;52.432;16.914;2023-04-25T02:14:58;99440.42;;;9.67;80.63
31911;BME280;18457;52.432;16.914;2023-04-25T02:17:40;99436.28;;;9.67;80.29
31911;BME280;18457;52.432;16.914;2023-04-25T02:20:13;99443.95;;;9.75;80.07
31911;BME280;18457;52.432;16.914;2023-04-25T02:22:47;99443.15;;;9.71;80.08
31911;BME280;18457;52.432;16.914;2023-04-25T02:25:19;99445.04;;;9.49;80.42
31911;BME280;18457;52.432;16.914;2023-04-25T02:27:51;99442.57;;;9.42;80.78
31911;BME280;18457;52.432;16.914;2023-04-25T02:30:23;99443.23;;;9.39;80.66
31911;BME280;18457;52.432;16.914;2023-04-25T02:32:55;99444.44;;;9.30;81.03
31911;BME280;18457;52.432;16.914;2023-04-25T02:35:27;99443.00;;;9.25;81.24
31911;BME280;18457;52.432;16.914;2023-04-25T02:37:59;99444.16;;;9.28;81.13
31911;BME280;18457;52.432;16.914;2023-04-25T02:40:31;99444.67;;;9.34;81.16
31911;BME280;18457;52.432;16.914;2023-04-25T02:43:03;99440.52;;;9.44;80.36
31911;BME280;18457;52.432;16.914;2023-04-25T02:45:35;99441.61;;;9.54;79.77
31911;BME280;18457;52.432;16.914;2023-04-25T02:48:06;99437.61;;;9.55;80.07
31911;BME280;18457;52.432;16.914;2023-04-25T02:50:39;99437.05;;;9.65;79.42
31911;BME280;18457;52.432;16.914;2023-04-25T02:53:10;99438.04;;;9.68;78.83
31911;BME280;18457;52.432;16.914;2023-04-25T02:55:47;99436.76;;;9.64;78.79
31911;BME280;18457;52.432;16.914;2023-04-25T02:58:20;99436.07;;;9.53;79.13
31911;BME280;18457;52.432;16.914;2023-04-25T03:00:54;99430.41;;;9.44;79.69
31911;BME280;18457;52.432;16.914;2023-04-25T03:03:26;99433.11;;;9.50;79.62
31911;BME280;18457;52.432;16.914;2023-04-25T03:05:58;99429.20;;;9.53;79.30
31911;BME280;18457;52.432;16.914;2023-04-25T03:08:32;99428.39;;;9.55;79.05
31911;BME280;18457;52.432;16.914;2023-04-25T03:11:05;99426.30;;;9.58;78.80
31911;BME280;18457;52.432;16.914;2023-04-25T03:13:38;99420.35;;;9.44;79.63
31911;BME280;18457;52.432;16.914;2023-04-25T03:16:11;99421.98;;;9.48;79.42
31911;BME280;18457;52.432;16.914;2023-04-25T03:18:43;99425.64;;;9.56;79.01
31911;BME280;18457;52.432;16.914;2023-04-25T03:21:15;99427.16;;;9.60;78.89
31911;BME280;18457;52.432;16.914;2023-04-25T03:23:47;99427.98;;;9.57;78.85
31911;BME280;18457;52.432;16.914;2023-04-25T03:26:20;99424.97;;;9.35;79.93
31911;BME280;18457;52.432;16.914;2023-04-25T03:28:52;99424.66;;;9.44;79.64
31911;BME280;18457;52.432;16.914;2023-04-25T03:31:24;99421.54;;;9.50;79.47
31911;BME280;18457;52.432;16.914;2023-04-25T03:33:56;99417.02;;;9.51;79.57
31911;BME280;18457;52.432;16.914;2023-04-25T03:36:29;99417.86;;;9.52;79.40
31911;BME280;18457;52.432;16.914;2023-04-25T03:39:01;99417.96;;;9.54;79.09
31911;BME280;18457;52.432;16.914;2023-04-25T03:41:33;99421.72;;;9.55;79.08
31911;BME280;18457;52.432;16.914;2023-04-25T03:44:09;99420.98;;;9.56;78.98
31911;BME280;18457;52.432;16.914;2023-04-25T03:46:42;99423.89;;;9.55;79.07
31911;BME280;18457;52.432;16.914;2023-04-25T03:49:15;99422.27;;;9.55;79.13
31911;BME280;18457;52.432;16.914;2023-04-25T03:52:00;99428.27;;;9.54;79.28
31911;BME280;18457;52.432;16.914;2023-04-25T03:54:36;99434.84;;;9.52;79.32
31911;BME280;18457;52.432;16.914;2023-04-25T03:57:21;99436.56;;;9.43;79.80
31911;BME280;18457;52.432;16.914;2023-04-25T03:59:53;99436.31;;;9.45;79.83
31911;BME280;18457;52.432;16.914;2023-04-25T04:02:26;99434.69;;;9.40;79.87
31911;BME280;18457;52.432;16.914;2023-04-25T04:04:58;99437.35;;;9.37;80.14
31911;BME280;18457;52.432;16.914;2023-04-25T04:07:29;99437.52;;;9.27;80.81
31911;BME280;18457;52.432;16.914;2023-04-25T04:10:06;99437.27;;;9.18;81.58
31911;BME280;18457;52.432;16.914;2023-04-25T04:12:40;99437.02;;;9.31;81.28
31911;BME280;18457;52.432;16.914;2023-04-25T04:15:13;99440.33;;;9.29;81.17
31911;BME280;18457;52.432;16.914;2023-04-25T04:17:49;99443.48;;;9.05;82.34
31911;BME280;18457;52.432;16.914;2023-04-25T04:20:21;99445.96;;;9.01;82.90
31911;BME280;18457;52.432;16.914;2023-04-25T04:22:54;99449.87;;;9.08;82.85
31911;BME280;18457;52.432;16.914;2023-04-25T04:25:27;99446.30;;;9.07;82.80
31911;BME280;18457;52.432;16.914;2023-04-25T04:28:12;99450.93;;;9.04;83.34
31911;BME280;18457;52.432;16.914;2023-04-25T04:30:52;99454.32;;;8.99;83.77
31911;BME280;18457;52.432;16.914;2023-04-25T04:33:24;99462.13;;;8.91;84.20
31911;BME280;18457;52.432;16.914;2023-04-25T04:36:02;99456.21;;;9.02;84.13
31911;BME280;18457;52.432;16.914;2023-04-25T04:38:35;99462.33;;;8.97;84.38
31911;BME280;18457;52.432;16.914;2023-04-25T04:41:11;99464.88;;;8.90;84.84
31911;BME280;18457;52.432;16.914;2023-04-25T04:43:53;99464.81;;;8.98;84.50
31911;BME280;18457;52.432;16.914;2023-04-25T04:46:34;99467.65;;;8.93;84.84
31911;BME280;18457;52.432;16.914;2023-04-25T04:49:30;99469.72;;;8.91;84.85
31911;BME280;18457;52.432;16.914;2023-04-25T04:52:22;99469.37;;;8.91;84.87
31911;BME280;18457;52.432;16.914;2023-04-25T04:55:17;99467.70;;;8.92;84.84
31911;BME280;18457;52.432;16.914;2023-04-25T04:58:06;99473.32;;;8.97;84.58
31911;BME280;18457;52.432;16.914;2023-04-25T05:00:57;99467.38;;;9.02;84.18
31911;BME280;18457;52.432;16.914;2023-04-25T05:03:52;99465.77;;;9.12;83.80
31911;BME280;18457;52.432;16.914;2023-04-25T05:06:38;99465.92;;;9.07;83.88
31911;BME280;18457;52.432;16.914;2023-04-25T05:09:18;99464.77;;;9.15;83.54
31911;BME280;18457;52.432;16.914;2023-04-25T05:12:06;99467.39;;;9.07;83.77
31911;BME280;18457;52.432;16.914;2023-04-25T05:15:11;99465.42;;;9.17;83.60
31911;BME280;18457;52.432;16.914;2023-04-25T05:18:03;99470.46;;;9.17;83.31
31911;BME280;18457;52.432;16.914;2023-04-25T05:20:45;99472.67;;;9.16;83.43
31911;BME280;18457;52.432;16.914;2023-04-25T05:23:46;99475.89;;;9.17;83.30
31911;BME280;18457;52.432;16.914;2023-04-25T05:26:38;99474.90;;;9.19;83.39
31911;BME280;18457;52.432;16.914;2023-04-25T05:29:26;99467.63;;;9.32;82.53
31911;BME280;18457;52.432;16.914;2023-04-25T05:32:11;99474.23;;;9.28;82.13
31911;BME280;18457;52.432;16.914;2023-04-25T05:34:43;99473.61;;;9.30;82.02
31911;BME280;18457;52.432;16.914;2023-04-25T05:37:25;99482.30;;;9.29;82.24
31911;BME280;18457;52.432;16.914;2023-04-25T05:40:15;99482.86;;;9.34;81.95
31911;BME280;18457;52.432;16.914;2023-04-25T05:43:05;99483.02;;;9.29;81.71
31911;BME280;18457;52.432;16.914;2023-04-25T05:45:52;99482.70;;;9.38;81.45
31911;BME280;18457;52.432;16.914;2023-04-25T05:48:55;99474.73;;;9.40;81.22
31911;BME280;18457;52.432;16.914;2023-04-25T05:51:53;99473.89;;;9.48;80.87
31911;BME280;18457;52.432;16.914;2023-04-25T05:54:52;99478.66;;;9.51;80.77
31911;BME280;18457;52.432;16.914;2023-04-25T05:57:26;99488.80;;;9.45;80.57
31911;BME280;18457;52.432;16.914;2023-04-25T05:59:59;99495.09;;;9.45;79.94
31911;BME280;18457;52.432;16.914;2023-04-25T06:02:43;99492.51;;;9.47;80.15
31911;BME280;18457;52.432;16.914;2023-04-25T06:05:17;99496.48;;;9.41;80.06
31911;BME280;18457;52.432;16.914;2023-04-25T06:07:50;99487.96;;;9.48;80.04
31911;BME280;18457;52.432;16.914;2023-04-25T06:10:22;99488.68;;;9.58;79.51
31911;BME280;18457;52.432;16.914;2023-04-25T06:12:54;99495.08;;;9.56;79.21
31911;BME280;18457;52.432;16.914;2023-04-25T06:15:26;99490.02;;;9.62;79.42
31911;BME280;18457;52.432;16.914;2023-04-25T06:17:59;99495.48;;;9.55;79.08
31911;BME280;18457;52.432;16.914;2023-04-25T06:20:31;99488.20;;;9.52;79.18
31911;BME280;18457;52.432;16.914;2023-04-25T06:23:03;99488.25;;;9.60;78.96
31911;BME280;18457;52.432;16.914;2023-04-25T06:26:04;99491.64;;;9.67;78.74
31911;BME280;18457;52.432;16.914;2023-04-25T06:28:37;99487.14;;;9.77;78.59
31911;BME280;18457;52.432;16.914;2023-04-25T06:31:09;99490.81;;;9.80;78.24
31911;BME280;18457;52.432;16.914;2023-04-25T06:33:42;99486.38;;;9.78;77.94
31911;BME280;18457;52.432;16.914;2023-04-25T06:36:14;99485.59;;;9.90;77.69
31911;BME280;18457;52.432;16.914;2023-04-25T06:38:46;99488.55;;;10.02;77.40
31911;BME280;18457;52.432;16.914;2023-04-25T06:41:19;99488.16;;;10.09;76.79
31911;BME280;18457;52.432;16.914;2023-04-25T06:43:51;99481.33;;;10.18;76.30
31911;BME280;18457;52.432;16.914;2023-04-25T06:46:46;99482.79;;;10.18;76.26
31911;BME280;18457;52.432;16.914;2023-04-25T06:49:18;99483.35;;;10.12;76.22
31911;BME280;18457;52.432;16.914;2023-04-25T06:51:50;99480.98;;;10.07;76.45
31911;BME280;18457;52.432;16.914;2023-04-25T06:54:22;99483.33;;;10.22;76.21
31911;BME280;18457;52.432;16.914;2023-04-25T06:57:02;99482.69;;;10.25;75.60
31911;BME280;18457;52.432;16.914;2023-04-25T06:59:33;99481.03;;;10.26;75.62
31911;BME280;18457;52.432;16.914;2023-04-25T07:02:05;99487.85;;;10.31;75.65
31911;BME280;18457;52.432;16.914;2023-04-25T07:04:37;99480.61;;;10.28;75.52
31911;BME280;18457;52.432;16.914;2023-04-25T07:07:10;99484.73;;;10.32;75.43
31911;BME280;18457;52.432;16.914;2023-04-25T07:09:48;99485.80;;;10.29;75.21
31911;BME280;18457;52.432;16.914;2023-04-25T07:12:20;99482.62;;;10.22;75.08
31911;BME280;18457;52.432;16.914;2023-04-25T07:14:52;99482.20;;;10.28;75.08
31911;BME280;18457;52.432;16.914;2023-04-25T07:17:25;99486.10;;;10.44;74.98
31911;BME280;18457;52.432;16.914;2023-04-25T07:19:56;99478.73;;;10.52;74.87
31911;BME280;18457;52.432;16.914;2023-04-25T07:22:30;99485.29;;;10.70;74.20
31911;BME280;18457;52.432;16.914;2023-04-25T07:25:01;99489.70;;;10.72;73.98
31911;BME280;18457;52.432;16.914;2023-04-25T07:27:36;99495.05;;;10.56;74.13
31911;BME280;18457;52.432;16.914;2023-04-25T07:30:21;99495.92;;;10.65;73.81
31911;BME280;18457;52.432;16.914;2023-04-25T07:32:54;99498.32;;;10.74;73.58
31911;BME280;18457;52.432;16.914;2023-04-25T07:35:26;99495.35;;;10.76;73.70
31911;BME280;18457;52.432;16.914;2023-04-25T07:37:58;99495.35;;;10.89;73.58
31911;BME280;18457;52.432;16.914;2023-04-25T07:40:31;99500.75;;;10.94;72.53
31911;BME280;18457;52.432;16.914;2023-04-25T07:43:06;99497.80;;;10.96;72.21
31911;BME280;18457;52.432;16.914;2023-04-25T07:45:57;99505.69;;;10.83;72.32
31911;BME280;18457;52.432;16.914;2023-04-25T07:48:31;99491.95;;;10.79;72.61
31911;BME280;18457;52.432;16.914;2023-04-25T07:51:02;99495.61;;;10.83;72.43
31911;BME280;18457;52.432;16.914;2023-04-25T07:53:35;99493.86;;;10.90;71.93
31911;BME280;18457;52.432;16.914;2023-04-25T07:56:11;99494.87;;;10.87;72.18
31911;BME280;18457;52.432;16.914;2023-04-25T07:58:44;99495.84;;;10.94;72.17
31911;BME280;18457;52.432;16.914;2023-04-25T08:01:18;99496.23;;;10.98;71.45
31911;BME280;18457;52.432;16.914;2023-04-25T08:03:59;99501.35;;;11.06;71.54
31911;BME280;18457;52.432;16.914;2023-04-25T08:06:49;99502.67;;;11.04;71.22
31911;BME280;18457;52.432;16.914;2023-04-25T08:09:26;99497.51;;;11.11;71.21
31911;BME280;18457;52.432;16.914;2023-04-25T08:11:57;99500.75;;;11.12;71.09
31911;BME280;18457;52.432;16.914;2023-04-25T08:14:32;99501.45;;;11.12;71.15
31911;BME280;18457;52.432;16.914;2023-04-25T08:17:07;99502.69;;;11.08;70.46
31911;BME280;18457;52.432;16.914;2023-04-25T08:19:44;99503.88;;;11.10;70.30
31911;BME280;18457;52.432;16.914;2023-04-25T08:22:23;99506.80;;;11.14;70.28
31911;BME280;18457;52.432;16.914;2023-04-25T08:25:01;99509.66;;;11.19;69.89
31911;BME280;18457;52.432;16.914;2023-04-25T08:27:33;99508.89;;;11.16;69.68
31911;BME280;18457;52.432;16.914;2023-04-25T08:30:07;99511.83;;;11.36;69.39
31911;BME280;18457;52.432;16.914;2023-04-25T08:32:40;99511.80;;;11.42;68.04
31911;BME280;18457;52.432;16.914;2023-04-25T08:35:41;99515.90;;;11.47;68.12
31911;BME280;18457;52.432;16.914;2023-04-25T08:38:14;99513.02;;;11.52;67.90
31911;BME280;18457;52.432;16.914;2023-04-25T08:40:50;99511.30;;;11.62;68.56
31911;BME280;18457;52.432;16.914;2023-04-25T08:43:24;99512.14;;;11.77;68.44
31911;BME280;18457;52.432;16.914;2023-04-25T08:45:55;99513.46;;;11.88;67.76
31911;BME280;18457;52.432;16.914;2023-04-25T08:48:38;99518.95;;;11.86;67.32
31911;BME280;18457;52.432;16.914;2023-04-25T08:51:15;99516.68;;;11.88;67.61
31911;BME280;18457;52.432;16.914;2023-04-25T08:53:52;99525.81;;;11.91;66.68
31911;BME280;18457;52.432;16.914;2023-04-25T08:56:33;99519.90;;;11.89;65.82
31911;BME280;18457;52.432;16.914;2023-04-25T08:59:05;99522.39;;;11.94;66.74
31911;BME280;18457;52.432;16.914;2023-04-25T09:01:39;99521.65;;;12.15;66.54
31911;BME280;18457;52.432;16.914;2023-04-25T09:04:13;99532.25;;;12.13;65.55
31911;BME280;18457;52.432;16.914;2023-04-25T09:06:45;99527.63;;;12.15;64.77
31911;BME280;18457;52.432;16.914;2023-04-25T09:09:17;99529.83;;;12.18;64.90
31911;BME280;18457;52.432;16.914;2023-04-25T09:11:50;99533.36;;;12.20;65.84
31911;BME280;18457;52.432;16.914;2023-04-25T09:14:23;99543.05;;;12.22;66.12
31911;BME280;18457;52.432;16.914;2023-04-25T09:17:05;99543.97;;;12.26;65.40
31911;BME280;18457;52.432;16.914;2023-04-25T09:20:07;99545.37;;;12.23;66.16
31911;BME280;18457;52.432;16.914;2023-04-25T09:22:39;99545.89;;;12.28;66.73
31911;BME280;18457;52.432;16.914;2023-04-25T09:25:13;99547.30;;;12.28;65.99
31911;BME280;18457;52.432;16.914;2023-04-25T09:27:52;99549.20;;;12.22;65.10
31911;BME280;18457;52.432;16.914;2023-04-25T09:30:32;99548.95;;;12.20;64.47
31911;BME280;18457;52.432;16.914;2023-04-25T09:33:12;99547.68;;;12.12;64.94
31911;BME280;18457;52.432;16.914;2023-04-25T09:35:48;99551.68;;;12.24;65.45
31911;BME280;18457;52.432;16.914;2023-04-25T09:38:30;99550.46;;;12.27;65.32
31911;BME280;18457;52.432;16.914;2023-04-25T09:41:10;99550.61;;;12.31;64.91
31911;BME280;18457;52.432;16.914;2023-04-25T09:43:46;99552.47;;;12.31;64.94
31911;BME280;18457;52.432;16.914;2023-04-25T09:46:25;99556.77;;;12.15;64.99
31911;BME280;18457;52.432;16.914;2023-04-25T09:48:58;99561.70;;;12.10;64.73
31911;BME280;18457;52.432;16.914;2023-04-25T09:51:37;99558.09;;;12.10;64.97
31911;BME280;18457;52.432;16.914;2023-04-25T09:54:09;99559.39;;;12.09;65.38
31911;BME280;18457;52.432;16.914;2023-04-25T09:56:50;99562.23;;;12.19;65.93
31911;BME280;18457;52.432;16.914;2023-04-25T09:59:24;99563.58;;;12.41;65.39
31911;BME280;18457;52.432;16.914;2023-04-25T10:01:56;99558.98;;;12.35;64.84
31911;BME280;18457;52.432;16.914;2023-04-25T10:04:35;99563.09;;;12.36;65.21
31911;BME280;18457;52.432;16.914;2023-04-25T10:07:31;99561.69;;;12.35;64.80
31911;BME280;18457;52.432;16.914;2023-04-25T10:10:05;99568.10;;;12.25;63.21
31911;BME280;18457;52.432;16.914;2023-04-25T10:12:38;99569.52;;;12.09;63.72
31911;BME280;18457;52.432;16.914;2023-04-25T10:15:12;99568.01;;;12.02;64.62
31911;BME280;18457;52.432;16.914;2023-04-25T10:17:46;99575.59;;;12.07;64.73
31911;BME280;18457;52.432;16.914;2023-04-25T10:20:18;99574.35;;;12.02;64.56
31911;BME280;18457;52.432;16.914;2023-04-25T10:22:51;99573.45;;;12.06;64.90
31911;BME280;18457;52.432;16.914;2023-04-25T10:25:27;99572.12;;;12.08;64.17
31911;BME280;18457;52.432;16.914;2023-04-25T10:28:00;99573.13;;;12.06;63.86
31911;BME280;18457;52.432;16.914;2023-04-25T10:30:34;99569.31;;;12.14;63.97
31911;BME280;18457;52.432;16.914;2023-04-25T10:33:17;99572.73;;;12.18;63.65
31911;BME280;18457;52.432;16.914;2023-04-25T10:35:50;99568.45;;;12.13;63.08
31911;BME280;18457;52.432;16.914;2023-04-25T10:38:22;99567.86;;;12.18;63.24
31911;BME280;18457;52.432;16.914;2023-04-25T10:41:05;99570.20;;;12.31;63.60
31911;BME280;18457;52.432;16.914;2023-04-25T10:43:40;99572.77;;;12.26;63.57
31911;BME280;18457;52.432;16.914;2023-04-25T10:46:21;99576.21;;;12.30;63.21
31911;BME280;18457;52.432;16.914;2023-04-25T10:48:55;99570.29;;;12.29;63.13
31911;BME280;18457;52.432;16.914;2023-04-25T10:51:28;99573.31;;;12.22;63.36
31911;BME280;18457;52.432;16.914;2023-04-25T10:54:21;99574.36;;;12.18;63.17
31911;BME280;18457;52.432;16.914;2023-04-25T10:56:56;99583.53;;;12.00;62.42
31911;BME280;18457;52.432;16.914;2023-04-25T10:59:30;99584.61;;;11.91;62.51
31911;BME280;18457;52.432;16.914;2023-04-25T11:02:12;99578.71;;;11.85;62.56
31911;BME280;18457;52.432;16.914;2023-04-25T11:04:45;99570.01;;;11.94;62.95
31911;BME280;18457;52.432;16.914;2023-04-25T11:07:26;99560.08;;;12.06;63.09
31911;BME280;18457;52.432;16.914;2023-04-25T11:10:02;99565.70;;;12.14;63.07
31911;BME280;18457;52.432;16.914;2023-04-25T11:12:35;99566.55;;;12.27;63.09
31911;BME280;18457;52.432;16.914;2023-04-25T11:15:11;99571.38;;;12.45;62.73
31911;BME280;18457;52.432;16.914;2023-04-25T11:17:43;99569.35;;;12.81;61.27
31911;BME280;18457;52.432;16.914;2023-04-25T11:20:17;99569.19;;;13.08;59.14
31911;BME280;18457;52.432;16.914;2023-04-25T11:22:49;99568.98;;;13.27;58.47
31911;BME280;18457;52.432;16.914;2023-04-25T11:25:24;99569.58;;;13.15;58.99
31911;BME280;18457;52.432;16.914;2023-04-25T11:27:58;99569.17;;;13.03;58.64
31911;BME280;18457;52.432;16.914;2023-04-25T11:30:32;99567.02;;;12.95;58.49
31911;BME280;18457;52.432;16.914;2023-04-25T11:33:04;99569.70;;;12.92;57.91
31911;BME280;18457;52.432;16.914;2023-04-25T11:35:36;99574.35;;;12.86;58.48
31911;BME280;18457;52.432;16.914;2023-04-25T11:38:08;99577.88;;;12.73;58.97
31911;BME280;18457;52.432;16.914;2023-04-25T11:40:41;99580.11;;;12.68;59.56
31911;BME280;18457;52.432;16.914;2023-04-25T11:43:13;99584.14;;;12.74;59.69
31911;BME280;18457;52.432;16.914;2023-04-25T11:45:49;99591.91;;;12.71;59.99
31911;BME280;18457;52.432;16.914;2023-04-25T11:48:22;99588.20;;;12.65;59.49
31911;BME280;18457;52.432;16.914;2023-04-25T11:50:56;99574.84;;;12.60;59.14
31911;BME280;18457;52.432;16.914;2023-04-25T11:53:28;99576.70;;;12.59;59.73
31911;BME280;18457;52.432;16.914;2023-04-25T11:56:00;99586.20;;;12.49;60.69
31911;BME280;18457;52.432;16.914;2023-04-25T11:58:33;99588.55;;;12.42;61.18
31911;BME280;18457;52.432;16.914;2023-04-25T12:01:30;99586.09;;;12.40;61.81
31911;BME280;18457;52.432;16.914;2023-04-25T12:04:16;99589.66;;;12.41;62.41
31911;BME280;18457;52.432;16.914;2023-04-25T12:06:50;99587.89;;;12.36;62.54
31911;BME280;18457;52.432;16.914;2023-04-25T12:09:31;99596.69;;;12.30;64.00
31911;BME280;18457;52.432;16.914;2023-04-25T12:12:04;99601.77;;;12.30;64.65
31911;BME280;18457;52.432;16.914;2023-04-25T12:14:37;99596.40;;;12.28;64.51
31911;BME280;18457;52.432;16.914;2023-04-25T12:17:08;99603.09;;;12.41;63.72
31911;BME280;18457;52.432;16.914;2023-04-25T12:19:43;99598.21;;;12.60;62.97
31911;BME280;18457;52.432;16.914;2023-04-25T12:22:23;99596.66;;;12.42;63.21
31911;BME280;18457;52.432;16.914;2023-04-25T12:24:55;99604.38;;;12.36;62.86
31911;BME280;18457;52.432;16.914;2023-04-25T12:27:30;99595.84;;;12.32;63.30
31911;BME280;18457;52.432;16.914;2023-04-25T12:30:02;99601.89;;;12.39;63.25
31911;BME280;18457;52.432;16.914;2023-04-25T12:32:35;99601.31;;;12.36;64.01
31911;BME280;18457;52.432;16.914;2023-04-25T12:35:09;99601.85;;;12.40;64.43
31911;BME280;18457;52.432;16.914;2023-04-25T12:37:41;99609.26;;;12.44;64.40
31911;BME280;18457;52.432;16.914;2023-04-25T12:40:13;99618.10;;;12.37;64.18
31911;BME280;18457;52.432;16.914;2023-04-25T12:42:45;99610.38;;;12.31;64.25
31911;BME280;18457;52.432;16.914;2023-04-25T12:45:17;99614.41;;;12.38;64.75
31911;BME280;18457;52.432;16.914;2023-04-25T12:47:49;99617.02;;;12.37;64.58
31911;BME280;18457;52.432;16.914;2023-04-25T12:50:22;99612.93;;;12.51;63.72
31911;BME280;18457;52.432;16.914;2023-04-25T12:52:54;99611.53;;;12.50;62.55
31911;BME280;18457;52.432;16.914;2023-04-25T12:55:26;99616.35;;;12.55;62.70
31911;BME280;18457;52.432;16.914;2023-04-25T12:57:58;99607.87;;;12.86;62.15
31911;BME280;18457;52.432;16.914;2023-04-25T13:00:30;99610.14;;;13.12;61.87
31911;BME280;18457;52.432;16.914;2023-04-25T13:03:02;99606.66;;;13.28;61.38
31911;BME280;18457;52.432;16.914;2023-04-25T13:05:35;99598.80;;;13.37;61.33
31911;BME280;18457;52.432;16.914;2023-04-25T13:08:07;99598.31;;;13.32;61.14
31911;BME280;18457;52.432;16.914;2023-04-25T13:10:39;99603.14;;;13.22;61.56
31911;BME280;18457;52.432;16.914;2023-04-25T13:13:11;99605.47;;;13.03;62.84
31911;BME280;18457;52.432;16.914;2023-04-25T13:15:43;99608.86;;;12.84;63.70
31911;BME280;18457;52.432;16.914;2023-04-25T13:18:15;99634.39;;;12.37;67.92
31911;BME280;18457;52.432;16.914;2023-04-25T13:20:47;99629.73;;;11.86;73.22
31911;BME280;18457;52.432;16.914;2023-04-25T13:23:19;99627.44;;;11.53;73.95
31911;BME280;18457;52.432;16.914;2023-04-25T13:25:50;99626.27;;;11.42;74.09
31911;BME280;18457;52.432;16.914;2023-04-25T13:28:22;99621.65;;;11.30;75.69
31911;BME280;18457;52.432;16.914;2023-04-25T13:30:54;99619.90;;;11.29;76.78
31911;BME280;18457;52.432;16.914;2023-04-25T13:33:26;99625.67;;;11.25;75.40
31911;BME280;18457;52.432;16.914;2023-04-25T13:36:00;99627.25;;;11.26;75.27
31911;BME280;18457;52.432;16.914;2023-04-25T13:38:32;99627.17;;;11.36;75.90
31911;BME280;18457;52.432;16.914;2023-04-25T13:41:04;99631.48;;;11.33;73.57